sensor_id;sensor_type;location;lat;lon;timestamp;temperature;humidity
41469;DHT22;27206;47.032;15.484;2023-05-07T00:02:06;15.20;1.00
41469;DHT22;27206;47.032;15.484;2023-05-07T00:04:32;15.20;1.00
41469;DHT22;27206;47.032;15.484;2023-05-07T00:07:02;15.20;1.00
41469;DHT22;27206;47.032;15.484;2023-05-07T00:09:28;15.20;1.00
41469;DHT22;27206;47.032;15.484;2023-05-07T00:11:53;15.20;1.00
41469;DHT22;27206;47.032;15.484;2023-05-07T00:14:19;15.00;1.00
41469;DHT22;27206;47.032;15.484;2023-05-07T00:16:45;15.00;1.00
41469;DHT22;27206;47.032;15.484;2023-05-07T00:19:10;15.10;1.00
41469;DHT22;27206;47.032;15.484;2023-05-07T00:21:36;15.10;1.00
41469;DHT22;27206;47.032;15.484;2023-05-07T00:24:02;15.10;1.00
41469;DHT22;27206;47.032;15.484;2023-05-07T00:26:27;15.10;1.00
41469;DHT22;27206;47.032;15.484;2023-05-07T00:28:53;15.00;1.00
41469;DHT22;27206;47.032;15.484;2023-05-07T00:31:18;15.00;1.00
41469;DHT22;27206;47.032;15.484;2023-05-07T00:33:44;15.00;1.00
41469;DHT22;27206;47.032;15.484;2023-05-07T00:36:10;15.00;1.00
41469;DHT22;27206;47.032;15.484;2023-05-07T00:38:35;15.00;1.00
41469;DHT22;27206;47.032;15.484;2023-05-07T00:41:01;15.00;1.00
41469;DHT22;27206;47.032;15.484;2023-05-07T00:43:27;15.00;1.00
41469;DHT22;27206;47.032;15.484;2023-05-07T00:45:54;15.00;1.00
41469;DHT22;27206;47.032;15.484;2023-05-07T00:48:20;15.00;1.00
41469;DHT22;27206;47.032;15.484;2023-05-07T00:50:46;14.90;1.00
41469;DHT22;27206;47.032;15.484;2023-05-07T00:53:12;14.90;1.00
41469;DHT22;27206;47.032;15.484;2023-05-07T00:55:38;14.90;1.00
41469;DHT22;27206;47.032;15.484;2023-05-07T00:58:04;14.80;1.00
41469;DHT22;27206;47.032;15.484;2023-05-07T01:00:31;14.80;1.00
41469;DHT22;27206;47.032;15.484;2023-05-07T01:02:57;14.80;1.00
41469;DHT22;27206;47.032;15.484;2023-05-07T01:05:24;14.80;1.00
41469;DHT22;27206;47.032;15.484;2023-05-07T01:07:52;14.70;1.00
41469;DHT22;27206;47.032;15.484;2023-05-07T01:10:19;14.70;1.00
41469;DHT22;27206;47.032;15.484;2023-05-07T01:12:45;14.70;1.00
41469;DHT22;27206;47.032;15.484;2023-05-07T01:15:11;14.60;1.00
41469;DHT22;27206;47.032;15.484;2023-05-07T01:17:39;14.60;1.00
41469;DHT22;27206;47.032;15.484;2023-05-07T01:20:06;14.60;1.00
41469;DHT22;27206;47.032;15.484;2023-05-07T01:22:37;14.50;1.00
41469;DHT22;27206;47.032;15.484;2023-05-07T01:25:03;14.50;1.00
41469;DHT22;27206;47.032;15.484;2023-05-07T01:27:29;14.40;1.00
41469;DHT22;27206;47.032;15.484;2023-05-07T01:29:55;14.40;1.00
41469;DHT22;27206;47.032;15.484;2023-05-07T01:34:57;14.20;1.00
41469;DHT22;27206;47.032;15.484;2023-05-07T01:37:25;14.20;1.00
41469;DHT22;27206;47.032;15.484;2023-05-07T01:39:52;14.20;1.00
41469;DHT22;27206;47.032;15.484;2023-05-07T01:42:18;14.00;1.00
41469;DHT22;27206;47.032;15.484;2023-05-07T01:44:44;13.90;1.00
41469;DHT22;27206;47.032;15.484;2023-05-07T01:47:10;13.80;1.00
41469;DHT22;27206;47.032;15.484;2023-05-07T01:49:35;13.80;1.00
41469;DHT22;27206;47.032;15.484;2023-05-07T01:52:02;13.80;1.00
41469;DHT22;27206;47.032;15.484;2023-05-07T01:54:28;13.80;1.00
41469;DHT22;27206;47.032;15.484;2023-05-07T01:56:55;13.80;1.00
41469;DHT22;27206;47.032;15.484;2023-05-07T01:59:21;13.80;1.00
41469;DHT22;27206;47.032;15.484;2023-05-07T02:01:47;13.80;1.00
41469;DHT22;27206;47.032;15.484;2023-05-07T02:04:13;13.80;1.00
41469;DHT22;27206;47.032;15.484;2023-05-07T02:06:38;13.70;1.00
41469;DHT22;27206;47.032;15.484;2023-05-07T02:09:04;13.70;1.00
41469;DHT22;27206;47.032;15.484;2023-05-07T02:11:29;13.60;1.00
41469;DHT22;27206;47.032;15.484;2023-05-07T02:13:55;13.60;1.00
41469;DHT22;27206;47.032;15.484;2023-05-07T02:16:21;13.60;1.00
41469;DHT22;27206;47.032;15.484;2023-05-07T02:18:47;13.50;1.00
41469;DHT22;27206;47.032;15.484;2023-05-07T02:21:13;13.50;1.00
41469;DHT22;27206;47.032;15.484;2023-05-07T02:23:38;13.40;1.00
41469;DHT22;27206;47.032;15.484;2023-05-07T02:26:04;13.30;1.00
41469;DHT22;27206;47.032;15.484;2023-05-07T02:28:30;13.30;1.00
41469;DHT22;27206;47.032;15.484;2023-05-07T02:30:55;13.40;1.00
41469;DHT22;27206;47.032;15.484;2023-05-07T02:33:23;13.30;1.00
41469;DHT22;27206;47.032;15.484;2023-05-07T02:35:49;13.30;1.00
41469;DHT22;27206;47.032;15.484;2023-05-07T02:38:17;13.30;1.00
41469;DHT22;27206;47.032;15.484;2023-05-07T02:40:42;13.30;1.00
41469;DHT22;27206;47.032;15.484;2023-05-07T02:43:08;13.30;1.00
41469;DHT22;27206;47.032;15.484;2023-05-07T02:45:34;13.30;1.00
41469;DHT22;27206;47.032;15.484;2023-05-07T02:48:00;13.40;1.00
41469;DHT22;27206;47.032;15.484;2023-05-07T02:50:25;13.30;1.00
41469;DHT22;27206;47.032;15.484;2023-05-07T02:52:52;13.30;1.00
41469;DHT22;27206;47.032;15.484;2023-05-07T02:55:18;13.30;1.00
41469;DHT22;27206;47.032;15.484;2023-05-07T02:57:43;13.40;1.00
41469;DHT22;27206;47.032;15.484;2023-05-07T03:00:14;13.40;1.00
41469;DHT22;27206;47.032;15.484;2023-05-07T03:02:40;13.40;1.00
41469;DHT22;27206;47.032;15.484;2023-05-07T03:05:06;13.40;1.00
41469;DHT22;27206;47.032;15.484;2023-05-07T03:07:32;13.30;1.00
41469;DHT22;27206;47.032;15.484;2023-05-07T03:09:57;13.30;1.00
41469;DHT22;27206;47.032;15.484;2023-05-07T03:12:23;13.10;1.00
41469;DHT22;27206;47.032;15.484;2023-05-07T03:14:49;13.10;1.00
41469;DHT22;27206;47.032;15.484;2023-05-07T03:17:15;13.00;1.00
41469;DHT22;27206;47.032;15.484;2023-05-07T03:19:41;13.00;1.00
41469;DHT22;27206;47.032;15.484;2023-05-07T03:22:07;13.00;1.00
41469;DHT22;27206;47.032;15.484;2023-05-07T03:24:32;13.00;1.00
41469;DHT22;27206;47.032;15.484;2023-05-07T03:26:58;12.90;1.00
41469;DHT22;27206;47.032;15.484;2023-05-07T03:29:24;12.80;1.00
41469;DHT22;27206;47.032;15.484;2023-05-07T03:31:49;12.70;1.00
41469;DHT22;27206;47.032;15.484;2023-05-07T03:34:15;12.70;1.00
41469;DHT22;27206;47.032;15.484;2023-05-07T03:36:42;12.70;1.00
41469;DHT22;27206;47.032;15.484;2023-05-07T03:39:08;12.60;1.00
41469;DHT22;27206;47.032;15.484;2023-05-07T03:41:33;12.60;1.00
41469;DHT22;27206;47.032;15.484;2023-05-07T03:43:59;12.60;1.00
41469;DHT22;27206;47.032;15.484;2023-05-07T03:46:25;12.60;1.00
41469;DHT22;27206;47.032;15.484;2023-05-07T03:48:51;12.60;1.00
41469;DHT22;27206;47.032;15.484;2023-05-07T03:51:17;12.60;1.00
41469;DHT22;27206;47.032;15.484;2023-05-07T03:53:43;12.60;1.00
41469;DHT22;27206;47.032;15.484;2023-05-07T03:56:08;12.50;1.00
41469;DHT22;27206;47.032;15.484;2023-05-07T03:58:34;12.40;1.00
41469;DHT22;27206;47.032;15.484;2023-05-07T04:01:00;12.40;1.00
41469;DHT22;27206;47.032;15.484;2023-05-07T04:03:26;12.40;1.00
41469;DHT22;27206;47.032;15.484;2023-05-07T04:05:51;12.30;1.00
41469;DHT22;27206;47.032;15.484;2023-05-07T04:08:17;12.30;1.00
41469;DHT22;27206;47.032;15.484;2023-05-07T04:10:43;12.30;1.00
41469;DHT22;27206;47.032;15.484;2023-05-07T04:13:08;12.40;1.00
41469;DHT22;27206;47.032;15.484;2023-05-07T04:15:35;12.40;1.00
41469;DHT22;27206;47.032;15.484;2023-05-07T04:18:01;12.40;1.00
41469;DHT22;27206;47.032;15.484;2023-05-07T04:20:27;12.50;1.00
41469;DHT22;27206;47.032;15.484;2023-05-07T04:22:52;12.50;1.00
41469;DHT22;27206;47.032;15.484;2023-05-07T04:25:18;12.60;1.00
41469;DHT22;27206;47.032;15.484;2023-05-07T04:27:44;12.70;1.00
41469;DHT22;27206;47.032;15.484;2023-05-07T04:30:10;12.70;1.00
41469;DHT22;27206;47.032;15.484;2023-05-07T04:32:35;12.70;1.00
41469;DHT22;27206;47.032;15.484;2023-05-07T04:35:03;12.80;1.00
41469;DHT22;27206;47.032;15.484;2023-05-07T04:37:28;12.90;1.00
41469;DHT22;27206;47.032;15.484;2023-05-07T04:39:54;12.80;1.00
41469;DHT22;27206;47.032;15.484;2023-05-07T04:42:19;12.90;1.00
41469;DHT22;27206;47.032;15.484;2023-05-07T04:44:45;13.00;1.00
41469;DHT22;27206;47.032;15.484;2023-05-07T04:47:11;13.00;1.00
41469;DHT22;27206;47.032;15.484;2023-05-07T04:49:38;13.10;1.00
41469;DHT22;27206;47.032;15.484;2023-05-07T04:52:04;13.20;1.00
41469;DHT22;27206;47.032;15.484;2023-05-07T04:54:29;13.20;1.00
41469;DHT22;27206;47.032;15.484;2023-05-07T04:56:55;13.20;1.00
41469;DHT22;27206;47.032;15.484;2023-05-07T04:59:21;13.20;1.00
41469;DHT22;27206;47.032;15.484;2023-05-07T05:01:47;13.20;1.00
41469;DHT22;27206;47.032;15.484;2023-05-07T05:04:12;13.30;1.00
41469;DHT22;27206;47.032;15.484;2023-05-07T05:06:38;13.30;1.00
41469;DHT22;27206;47.032;15.484;2023-05-07T05:09:04;13.40;1.00
41469;DHT22;27206;47.032;15.484;2023-05-07T05:11:31;13.40;1.00
41469;DHT22;27206;47.032;15.484;2023-05-07T05:13:56;13.50;1.00
41469;DHT22;27206;47.032;15.484;2023-05-07T05:16:22;13.50;1.00
41469;DHT22;27206;47.032;15.484;2023-05-07T05:18:48;13.50;1.00
41469;DHT22;27206;47.032;15.484;2023-05-07T05:21:13;13.50;1.00
41469;DHT22;27206;47.032;15.484;2023-05-07T05:23:39;13.50;1.00
41469;DHT22;27206;47.032;15.484;2023-05-07T05:26:05;13.50;1.00
41469;DHT22;27206;47.032;15.484;2023-05-07T05:28:30;13.50;1.00
41469;DHT22;27206;47.032;15.484;2023-05-07T05:30:56;13.60;1.00
41469;DHT22;27206;47.032;15.484;2023-05-07T05:33:22;13.70;1.00
41469;DHT22;27206;47.032;15.484;2023-05-07T05:35:47;13.70;1.00
41469;DHT22;27206;47.032;15.484;2023-05-07T05:38:13;13.80;1.00
41469;DHT22;27206;47.032;15.484;2023-05-07T05:40:39;13.90;1.00
41469;DHT22;27206;47.032;15.484;2023-05-07T05:43:05;13.90;1.00
41469;DHT22;27206;47.032;15.484;2023-05-07T05:45:31;13.80;1.00
41469;DHT22;27206;47.032;15.484;2023-05-07T05:47:57;13.80;1.00
41469;DHT22;27206;47.032;15.484;2023-05-07T05:50:23;13.80;1.00
41469;DHT22;27206;47.032;15.484;2023-05-07T05:52:48;13.80;1.00
41469;DHT22;27206;47.032;15.484;2023-05-07T05:55:14;13.80;1.00
41469;DHT22;27206;47.032;15.484;2023-05-07T05:57:40;14.00;1.00
41469;DHT22;27206;47.032;15.484;2023-05-07T06:00:06;14.00;1.00
41469;DHT22;27206;47.032;15.484;2023-05-07T06:02:33;14.00;1.00
41469;DHT22;27206;47.032;15.484;2023-05-07T06:04:58;14.20;1.00
41469;DHT22;27206;47.032;15.484;2023-05-07T06:07:24;14.20;1.00
41469;DHT22;27206;47.032;15.484;2023-05-07T06:09:50;14.20;1.00
41469;DHT22;27206;47.032;15.484;2023-05-07T06:12:16;14.20;1.00
41469;DHT22;27206;47.032;15.484;2023-05-07T06:14:43;14.40;1.00
41469;DHT22;27206;47.032;15.484;2023-05-07T06:17:09;14.40;1.00
41469;DHT22;27206;47.032;15.484;2023-05-07T06:19:35;14.50;1.00
41469;DHT22;27206;47.032;15.484;2023-05-07T06:22:01;14.50;1.00
41469;DHT22;27206;47.032;15.484;2023-05-07T06:24:27;14.60;1.00
41469;DHT22;27206;47.032;15.484;2023-05-07T06:26:52;14.70;1.00
41469;DHT22;27206;47.032;15.484;2023-05-07T06:29:18;14.80;1.00
41469;DHT22;27206;47.032;15.484;2023-05-07T06:31:44;14.80;1.00
41469;DHT22;27206;47.032;15.484;2023-05-07T06:34:10;15.00;1.00
41469;DHT22;27206;47.032;15.484;2023-05-07T06:36:40;15.20;1.00
41469;DHT22;27206;47.032;15.484;2023-05-07T06:39:06;15.30;1.00
41469;DHT22;27206;47.032;15.484;2023-05-07T06:41:31;15.30;1.00
41469;DHT22;27206;47.032;15.484;2023-05-07T06:43:57;15.30;1.00
41469;DHT22;27206;47.032;15.484;2023-05-07T06:46:22;15.40;1.00
41469;DHT22;27206;47.032;15.484;2023-05-07T06:48:48;15.50;1.00
41469;DHT22;27206;47.032;15.484;2023-05-07T06:51:14;15.80;1.00
41469;DHT22;27206;47.032;15.484;2023-05-07T06:53:39;16.70;99.90
41469;DHT22;27206;47.032;15.484;2023-05-07T06:56:06;16.60;99.90
41469;DHT22;27206;47.032;15.484;2023-05-07T06:58:31;16.50;99.90
41469;DHT22;27206;47.032;15.484;2023-05-07T07:00:57;16.50;99.90
41469;DHT22;27206;47.032;15.484;2023-05-07T07:03:23;16.70;99.90
41469;DHT22;27206;47.032;15.484;2023-05-07T07:05:52;16.70;99.90
41469;DHT22;27206;47.032;15.484;2023-05-07T07:08:18;16.90;99.90
41469;DHT22;27206;47.032;15.484;2023-05-07T07:10:44;17.00;99.90
41469;DHT22;27206;47.032;15.484;2023-05-07T07:13:09;17.10;99.90
41469;DHT22;27206;47.032;15.484;2023-05-07T07:15:35;17.30;99.90
41469;DHT22;27206;47.032;15.484;2023-05-07T07:18:04;17.40;99.90
41469;DHT22;27206;47.032;15.484;2023-05-07T07:20:29;17.50;99.90
41469;DHT22;27206;47.032;15.484;2023-05-07T07:22:55;17.60;99.90
41469;DHT22;27206;47.032;15.484;2023-05-07T07:25:21;17.70;99.90
41469;DHT22;27206;47.032;15.484;2023-05-07T07:27:46;17.80;99.90
41469;DHT22;27206;47.032;15.484;2023-05-07T07:30:12;18.00;99.90
41469;DHT22;27206;47.032;15.484;2023-05-07T07:32:37;18.00;99.90
41469;DHT22;27206;47.032;15.484;2023-05-07T07:35:03;18.10;99.90
41469;DHT22;27206;47.032;15.484;2023-05-07T07:37:30;18.20;99.90
41469;DHT22;27206;47.032;15.484;2023-05-07T07:39:55;18.30;99.90
41469;DHT22;27206;47.032;15.484;2023-05-07T07:42:21;18.30;99.90
41469;DHT22;27206;47.032;15.484;2023-05-07T07:44:47;18.40;99.90
41469;DHT22;27206;47.032;15.484;2023-05-07T07:47:13;18.50;99.90
41469;DHT22;27206;47.032;15.484;2023-05-07T07:49:39;18.60;99.90
41469;DHT22;27206;47.032;15.484;2023-05-07T07:52:04;18.50;99.90
41469;DHT22;27206;47.032;15.484;2023-05-07T07:54:30;18.70;99.90
41469;DHT22;27206;47.032;15.484;2023-05-07T07:56:56;18.70;99.90
41469;DHT22;27206;47.032;15.484;2023-05-07T07:59:21;18.80;99.90
41469;DHT22;27206;47.032;15.484;2023-05-07T08:01:48;18.90;99.90
41469;DHT22;27206;47.032;15.484;2023-05-07T08:04:15;19.00;99.90
41469;DHT22;27206;47.032;15.484;2023-05-07T08:06:41;19.20;99.90
41469;DHT22;27206;47.032;15.484;2023-05-07T08:09:07;19.20;99.90
41469;DHT22;27206;47.032;15.484;2023-05-07T08:11:33;19.30;99.90
41469;DHT22;27206;47.032;15.484;2023-05-07T08:13:59;19.40;99.90
41469;DHT22;27206;47.032;15.484;2023-05-07T08:16:25;19.50;99.90
41469;DHT22;27206;47.032;15.484;2023-05-07T08:18:51;19.60;99.90
41469;DHT22;27206;47.032;15.484;2023-05-07T08:21:17;19.70;99.90
41469;DHT22;27206;47.032;15.484;2023-05-07T08:23:42;19.90;99.90
41469;DHT22;27206;47.032;15.484;2023-05-07T08:26:08;19.60;99.90
41469;DHT22;27206;47.032;15.484;2023-05-07T08:28:35;19.50;99.90
41469;DHT22;27206;47.032;15.484;2023-05-07T08:31:00;19.30;99.90
41469;DHT22;27206;47.032;15.484;2023-05-07T08:33:27;19.30;99.90
41469;DHT22;27206;47.032;15.484;2023-05-07T08:35:52;19.70;99.90
41469;DHT22;27206;47.032;15.484;2023-05-07T08:38:18;20.10;99.90
41469;DHT22;27206;47.032;15.484;2023-05-07T08:40:44;20.30;99.90
41469;DHT22;27206;47.032;15.484;2023-05-07T08:43:13;20.40;99.90
41469;DHT22;27206;47.032;15.484;2023-05-07T08:45:39;20.60;99.90
41469;DHT22;27206;47.032;15.484;2023-05-07T08:48:14;20.70;99.90
41469;DHT22;27206;47.032;15.484;2023-05-07T08:50:40;21.00;99.90
41469;DHT22;27206;47.032;15.484;2023-05-07T08:53:06;21.50;99.90
41469;DHT22;27206;47.032;15.484;2023-05-07T08:55:32;21.70;99.90
41469;DHT22;27206;47.032;15.484;2023-05-07T08:57:58;21.80;99.90
41469;DHT22;27206;47.032;15.484;2023-05-07T09:00:24;22.00;99.90
41469;DHT22;27206;47.032;15.484;2023-05-07T09:02:50;21.90;99.90
41469;DHT22;27206;47.032;15.484;2023-05-07T09:05:16;21.60;99.90
41469;DHT22;27206;47.032;15.484;2023-05-07T09:07:41;21.40;99.90
41469;DHT22;27206;47.032;15.484;2023-05-07T09:10:07;21.50;99.90
41469;DHT22;27206;47.032;15.484;2023-05-07T09:12:33;22.00;99.90
41469;DHT22;27206;47.032;15.484;2023-05-07T09:15:00;22.10;99.90
41469;DHT22;27206;47.032;15.484;2023-05-07T09:17:26;21.70;99.90
41469;DHT22;27206;47.032;15.484;2023-05-07T09:19:52;21.30;99.90
41469;DHT22;27206;47.032;15.484;2023-05-07T09:22:19;21.50;99.90
41469;DHT22;27206;47.032;15.484;2023-05-07T09:24:51;22.10;99.90
41469;DHT22;27206;47.032;15.484;2023-05-07T09:27:17;22.50;99.90
41469;DHT22;27206;47.032;15.484;2023-05-07T09:29:46;22.40;99.90
41469;DHT22;27206;47.032;15.484;2023-05-07T09:32:11;22.60;99.90
41469;DHT22;27206;47.032;15.484;2023-05-07T09:34:37;22.70;99.90
41469;DHT22;27206;47.032;15.484;2023-05-07T09:37:04;22.90;99.90
41469;DHT22;27206;47.032;15.484;2023-05-07T09:39:47;23.50;99.90
41469;DHT22;27206;47.032;15.484;2023-05-07T09:42:12;23.70;99.90
41469;DHT22;27206;47.032;15.484;2023-05-07T09:44:40;23.20;99.90
41469;DHT22;27206;47.032;15.484;2023-05-07T09:47:07;23.40;99.90
41469;DHT22;27206;47.032;15.484;2023-05-07T09:49:39;23.80;99.90
41469;DHT22;27206;47.032;15.484;2023-05-07T09:52:06;23.80;99.90
41469;DHT22;27206;47.032;15.484;2023-05-07T09:54:35;23.20;99.90
41469;DHT22;27206;47.032;15.484;2023-05-07T09:57:04;23.40;99.90
41469;DHT22;27206;47.032;15.484;2023-05-07T09:59:32;23.20;99.90
41469;DHT22;27206;47.032;15.484;2023-05-07T10:01:59;23.70;99.90
41469;DHT22;27206;47.032;15.484;2023-05-07T10:04:25;24.00;99.90
41469;DHT22;27206;47.032;15.484;2023-05-07T10:06:52;23.90;99.90
41469;DHT22;27206;47.032;15.484;2023-05-07T10:09:19;24.20;99.90
41469;DHT22;27206;47.032;15.484;2023-05-07T10:11:46;24.20;99.90
41469;DHT22;27206;47.032;15.484;2023-05-07T10:14:14;25.00;99.90
41469;DHT22;27206;47.032;15.484;2023-05-07T10:16:40;25.30;99.90
41469;DHT22;27206;47.032;15.484;2023-05-07T10:19:07;24.60;99.90
41469;DHT22;27206;47.032;15.484;2023-05-07T10:21:36;23.90;99.90
41469;DHT22;27206;47.032;15.484;2023-05-07T10:24:09;24.10;99.90
41469;DHT22;27206;47.032;15.484;2023-05-07T10:26:42;24.40;99.90
41469;DHT22;27206;47.032;15.484;2023-05-07T10:29:18;24.20;99.90
41469;DHT22;27206;47.032;15.484;2023-05-07T10:34:26;24.80;99.90
41469;DHT22;27206;47.032;15.484;2023-05-07T10:36:54;25.50;99.90
41469;DHT22;27206;47.032;15.484;2023-05-07T10:39:21;25.70;99.90
41469;DHT22;27206;47.032;15.484;2023-05-07T10:41:48;25.90;99.90
41469;DHT22;27206;47.032;15.484;2023-05-07T10:44:34;25.70;99.90
41469;DHT22;27206;47.032;15.484;2023-05-07T10:47:20;25.60;99.90
41469;DHT22;27206;47.032;15.484;2023-05-07T10:52:22;26.60;99.90
41469;DHT22;27206;47.032;15.484;2023-05-07T10:57:43;25.00;99.90
41469;DHT22;27206;47.032;15.484;2023-05-07T11:05:25;25.50;99.90
41469;DHT22;27206;47.032;15.484;2023-05-07T11:07:55;25.90;99.90
41469;DHT22;27206;47.032;15.484;2023-05-07T11:10:21;26.60;99.90
41469;DHT22;27206;47.032;15.484;2023-05-07T11:12:48;26.30;99.90
41469;DHT22;27206;47.032;15.484;2023-05-07T11:15:14;26.40;99.90
41469;DHT22;27206;47.032;15.484;2023-05-07T11:17:58;25.30;99.90
41469;DHT22;27206;47.032;15.484;2023-05-07T11:20:46;24.60;99.90
41469;DHT22;27206;47.032;15.484;2023-05-07T11:26:00;25.50;99.90
41469;DHT22;27206;47.032;15.484;2023-05-07T11:28:28;26.10;99.90
41469;DHT22;27206;47.032;15.484;2023-05-07T11:30:54;26.80;99.90
41469;DHT22;27206;47.032;15.484;2023-05-07T11:33:20;26.80;99.90
41469;DHT22;27206;47.032;15.484;2023-05-07T11:35:46;25.90;99.90
41469;DHT22;27206;47.032;15.484;2023-05-07T11:38:13;25.10;99.90
41469;DHT22;27206;47.032;15.484;2023-05-07T11:40:55;24.60;99.90
41469;DHT22;27206;47.032;15.484;2023-05-07T11:43:21;24.20;99.90
41469;DHT22;27206;47.032;15.484;2023-05-07T11:45:48;24.20;99.90
41469;DHT22;27206;47.032;15.484;2023-05-07T11:48:14;23.80;99.90
41469;DHT22;27206;47.032;15.484;2023-05-07T11:53:17;23.90;99.90
41469;DHT22;27206;47.032;15.484;2023-05-07T11:55:43;24.00;99.90
41469;DHT22;27206;47.032;15.484;2023-05-07T11:58:11;24.30;99.90
41469;DHT22;27206;47.032;15.484;2023-05-07T12:00:37;24.50;99.90
41469;DHT22;27206;47.032;15.484;2023-05-07T12:03:06;24.30;99.90
41469;DHT22;27206;47.032;15.484;2023-05-07T12:05:31;24.10;99.90
41469;DHT22;27206;47.032;15.484;2023-05-07T12:07:57;23.90;99.90
41469;DHT22;27206;47.032;15.484;2023-05-07T12:10:23;24.10;99.90
41469;DHT22;27206;47.032;15.484;2023-05-07T12:12:50;24.10;99.90
41469;DHT22;27206;47.032;15.484;2023-05-07T12:15:16;24.10;99.90
41469;DHT22;27206;47.032;15.484;2023-05-07T12:17:43;24.50;99.90
41469;DHT22;27206;47.032;15.484;2023-05-07T12:20:09;25.70;99.90
41469;DHT22;27206;47.032;15.484;2023-05-07T12:22:36;27.00;99.90
41469;DHT22;27206;47.032;15.484;2023-05-07T12:25:02;27.40;99.90
41469;DHT22;27206;47.032;15.484;2023-05-07T12:27:28;27.30;99.90
41469;DHT22;27206;47.032;15.484;2023-05-07T12:29:54;27.20;99.90
41469;DHT22;27206;47.032;15.484;2023-05-07T12:32:21;26.40;99.90
41469;DHT22;27206;47.032;15.484;2023-05-07T12:34:50;26.20;99.90
41469;DHT22;27206;47.032;15.484;2023-05-07T12:37:15;26.00;99.90
41469;DHT22;27206;47.032;15.484;2023-05-07T12:39:47;26.10;99.90
41469;DHT22;27206;47.032;15.484;2023-05-07T12:42:15;27.30;99.90
41469;DHT22;27206;47.032;15.484;2023-05-07T12:44:43;27.80;99.90
41469;DHT22;27206;47.032;15.484;2023-05-07T12:47:10;27.80;99.90
41469;DHT22;27206;47.032;15.484;2023-05-07T12:49:36;27.20;99.90
41469;DHT22;27206;47.032;15.484;2023-05-07T12:52:05;26.80;99.90
41469;DHT22;27206;47.032;15.484;2023-05-07T12:54:33;26.40;99.90
41469;DHT22;27206;47.032;15.484;2023-05-07T12:57:07;25.90;99.90
41469;DHT22;27206;47.032;15.484;2023-05-07T12:59:37;25.40;99.90
41469;DHT22;27206;47.032;15.484;2023-05-07T13:02:04;24.80;99.90
41469;DHT22;27206;47.032;15.484;2023-05-07T13:04:30;24.40;99.90
41469;DHT22;27206;47.032;15.484;2023-05-07T13:06:55;23.70;99.90
41469;DHT22;27206;47.032;15.484;2023-05-07T13:09:21;23.60;99.90
41469;DHT22;27206;47.032;15.484;2023-05-07T13:11:47;23.50;99.90
41469;DHT22;27206;47.032;15.484;2023-05-07T13:14:12;23.50;99.90
41469;DHT22;27206;47.032;15.484;2023-05-07T13:16:38;23.20;99.90
41469;DHT22;27206;47.032;15.484;2023-05-07T13:19:03;22.90;99.90
41469;DHT22;27206;47.032;15.484;2023-05-07T13:21:29;22.80;99.90
41469;DHT22;27206;47.032;15.484;2023-05-07T13:23:57;22.70;99.90
41469;DHT22;27206;47.032;15.484;2023-05-07T13:26:23;22.60;99.90
41469;DHT22;27206;47.032;15.484;2023-05-07T13:28:49;22.60;99.90
41469;DHT22;27206;47.032;15.484;2023-05-07T13:31:17;22.40;99.90
41469;DHT22;27206;47.032;15.484;2023-05-07T13:33:42;22.20;99.90
41469;DHT22;27206;47.032;15.484;2023-05-07T13:36:08;21.70;99.90
41469;DHT22;27206;47.032;15.484;2023-05-07T13:38:35;21.30;99.90
41469;DHT22;27206;47.032;15.484;2023-05-07T13:41:01;20.80;99.90
41469;DHT22;27206;47.032;15.484;2023-05-07T13:43:27;20.10;99.90
41469;DHT22;27206;47.032;15.484;2023-05-07T13:45:52;19.90;99.90
41469;DHT22;27206;47.032;15.484;2023-05-07T13:48:18;19.70;99.90
41469;DHT22;27206;47.032;15.484;2023-05-07T13:50:44;19.60;99.90
41469;DHT22;27206;47.032;15.484;2023-05-07T13:53:09;18.70;99.90
41469;DHT22;27206;47.032;15.484;2023-05-07T13:55:35;18.10;99.90
41469;DHT22;27206;47.032;15.484;2023-05-07T13:58:02;18.50;99.90
41469;DHT22;27206;47.032;15.484;2023-05-07T14:00:29;18.30;99.90
41469;DHT22;27206;47.032;15.484;2023-05-07T14:02:55;18.40;99.90
41469;DHT22;27206;47.032;15.484;2023-05-07T14:05:21;18.30;99.90
41469;DHT22;27206;47.032;15.484;2023-05-07T14:07:50;18.00;99.90
41469;DHT22;27206;47.032;15.484;2023-05-07T14:10:18;17.80;99.90
41469;DHT22;27206;47.032;15.484;2023-05-07T14:12:44;17.60;1.00
41469;DHT22;27206;47.032;15.484;2023-05-07T14:15:10;17.40;1.00
41469;DHT22;27206;47.032;15.484;2023-05-07T14:17:36;17.60;1.00
41469;DHT22;27206;47.032;15.484;2023-05-07T14:20:02;17.50;99.90
41469;DHT22;27206;47.032;15.484;2023-05-07T14:22:28;17.30;1.00
41469;DHT22;27206;47.032;15.484;2023-05-07T14:24:54;17.20;1.00
41469;DHT22;27206;47.032;15.484;2023-05-07T14:27:19;17.30;1.00
41469;DHT22;27206;47.032;15.484;2023-05-07T14:29:45;17.30;1.00
41469;DHT22;27206;47.032;15.484;2023-05-07T14:32:18;17.40;1.00
41469;DHT22;27206;47.032;15.484;2023-05-07T14:34:45;17.40;1.00
41469;DHT22;27206;47.032;15.484;2023-05-07T14:37:11;17.20;1.00
41469;DHT22;27206;47.032;15.484;2023-05-07T14:39:37;17.10;1.00
41469;DHT22;27206;47.032;15.484;2023-05-07T14:42:02;17.30;1.00
41469;DHT22;27206;47.032;15.484;2023-05-07T14:44:28;17.00;1.00
41469;DHT22;27206;47.032;15.484;2023-05-07T14:46:54;17.00;1.00
41469;DHT22;27206;47.032;15.484;2023-05-07T14:49:20;17.00;1.00
41469;DHT22;27206;47.032;15.484;2023-05-07T14:51:46;17.10;1.00
41469;DHT22;27206;47.032;15.484;2023-05-07T14:54:15;17.20;1.00
41469;DHT22;27206;47.032;15.484;2023-05-07T14:56:41;17.20;1.00
41469;DHT22;27206;47.032;15.484;2023-05-07T14:59:07;17.10;1.00
41469;DHT22;27206;47.032;15.484;2023-05-07T15:01:35;16.80;1.00
41469;DHT22;27206;47.032;15.484;2023-05-07T15:04:02;16.70;1.00
41469;DHT22;27206;47.032;15.484;2023-05-07T15:06:28;16.70;1.00
41469;DHT22;27206;47.032;15.484;2023-05-07T15:08:54;16.70;1.00
41469;DHT22;27206;47.032;15.484;2023-05-07T15:11:20;16.70;1.00
41469;DHT22;27206;47.032;15.484;2023-05-07T15:13:46;16.70;1.00
41469;DHT22;27206;47.032;15.484;2023-05-07T15:16:11;16.70;1.00
41469;DHT22;27206;47.032;15.484;2023-05-07T15:18:37;16.80;1.00
41469;DHT22;27206;47.032;15.484;2023-05-07T15:21:02;16.80;1.00
41469;DHT22;27206;47.032;15.484;2023-05-07T15:23:28;17.00;1.00
41469;DHT22;27206;47.032;15.484;2023-05-07T15:25:54;17.10;1.00
41469;DHT22;27206;47.032;15.484;2023-05-07T15:28:19;17.20;1.00
41469;DHT22;27206;47.032;15.484;2023-05-07T15:30:45;17.30;1.00
41469;DHT22;27206;47.032;15.484;2023-05-07T15:33:11;17.40;1.00
41469;DHT22;27206;47.032;15.484;2023-05-07T15:35:36;17.30;1.00
41469;DHT22;27206;47.032;15.484;2023-05-07T15:38:02;17.30;1.00
41469;DHT22;27206;47.032;15.484;2023-05-07T15:40:28;17.60;1.00
41469;DHT22;27206;47.032;15.484;2023-05-07T15:42:55;17.50;1.00